Facebook Twitter

Wetterstation Reutte

aktuelles Wetter
 
  Temperatur Wetter Luftdruck Wind
Do, 22:00 Uhr 20.5 °C - 1014.5 hPa 0 km/h km/h
Do, 21:00 Uhr 25.1 °C - 1012.4 hPa 0 km/h km/h
Do, 20:00 Uhr 26.7 °C - 1011.4 hPa 0 km/h km/h
Do, 19:00 Uhr 27.5 °C - 1010.8 hPa 0 km/h km/h
Do, 18:00 Uhr 28.9 °C - 1011 hPa 0 km/h km/h
Do, 17:00 Uhr 29.1 °C - 1011.5 hPa 0 km/h km/h
Do, 16:00 Uhr 29.0 °C - 1011.5 hPa 0 km/h km/h
Do, 15:00 Uhr 28.5 °C - 1012.4 hPa 0 km/h km/h
Do, 14:00 Uhr 28.2 °C - 1012.9 hPa 0 km/h km/h
Do, 13:00 Uhr 28.1 °C - 1013.1 hPa 0 km/h km/h
Do, 12:00 Uhr 27.1 °C - 1013.6 hPa 0 km/h km/h
Do, 11:00 Uhr 26.1 °C - 1014.1 hPa 0 km/h km/h
Do, 10:00 Uhr 24.6 °C - 1015.1 hPa 0 km/h km/h
Do, 09:00 Uhr 21.6 °C - 1016.4 hPa 0 km/h km/h
Do, 07:00 Uhr 17.6 °C - 1017.9 hPa 0 km/h km/h
Do, 06:00 Uhr 15.6 °C - 1018.3 hPa 0 km/h km/h
Do, 05:00 Uhr 17.4 °C - 1017.2 hPa 0 km/h km/h
Do, 04:00 Uhr 17.9 °C - 1017.2 hPa 0 km/h km/h
Do, 03:00 Uhr 18.2 °C - 1017.3 hPa 0 km/h km/h
Do, 01:00 Uhr 17.7 °C - 1017.3 hPa 0 km/h km/h

Alle Zeitangaben in Ortszeit (MESZ)